Thetford Center, Vermont
Current Conditions -  °F | °C
As of 7:53 PM on Saturday 25 Oct 2014 (Local Time) from KLEB Reporting Station
Overcast Overcast  
Wind Chill: 53°   Ceiling: 6000
Heat Index: 53°   Visibility: 10mi
Dew Point: 45°   Wind: 6mph
Humidity: 74%   Direction: 180°S
Pressure: 29.52"   Gusts: NA
Location:  43.83°N, 72.25°W
Report Text: KLEB 252353Z 18005KT 10SM FEW041 OVC060 12/07 A2952 RMK AO2 SLP998 T01170072 10172 20111 56020
Loading
Personal Weather Stations






























Interactive Weather Map
Tropical Storm Tracking
New forecast layout! Learn more

10-Day Weather Forecast

Advertisements
Track Severe Weather on mobile